Flight Training


We provide structured training required to obtain a pilots certificate ranging from a Private Pilot up to ATP flying for the major airlines.

If your desire to fly is for personal pleasure the first step is to find a professional FAA licensed flight instructor to begin your journey.

The one-hour introductory flight with an instructor lasts one hour and features a log book and a six-month subscription to Flight Training magazine. After flying you to the training area, your instructor will let you test the controls. Call us now

 

Aviation Weather

Available data for KLDJ from the past 2 hours
LINDEN, NJ

Available data for KEWR from the past hour
NEWARK, NJ
TAF
KEWR 252320Z 2600/2706 24012G21KT P6SM FEW060 FEW250 FM260200 23011KT P6SM FEW250 FM260700 23007KT P6SM FEW060 SCT250 FM261600 24010KT P6SM SCT060 BKN250 FM262200 25011KT P6SM VCTS BKN050CB OVC100 FM270200 24007KT 5SM -SHRA BKN050

Our planes

Some of our students